createdAt,value
2023-01-17T00:02:12.706Z,4.73
2023-01-17T00:05:00.503Z,4.93
2023-01-17T00:07:46.586Z,5.01
2023-01-17T00:10:22.893Z,4.98
2023-01-17T00:12:52.894Z,5.05
2023-01-17T00:15:20.424Z,4.95
2023-01-17T00:17:48.909Z,4.87
2023-01-17T00:20:36.143Z,4.87
2023-01-17T00:23:32.304Z,4.87
2023-01-17T00:26:04.550Z,4.79
2023-01-17T00:28:38.768Z,4.92
2023-01-17T00:31:06.933Z,4.99
2023-01-17T00:33:34.161Z,4.71
2023-01-17T00:36:01.990Z,4.59
2023-01-17T00:38:31.016Z,4.51
2023-01-17T00:41:09.296Z,4.45
2023-01-17T00:43:54.373Z,4.41
2023-01-17T00:46:40.394Z,4.38
2023-01-17T00:49:26.108Z,4.39
2023-01-17T00:52:11.652Z,4.48
2023-01-17T00:54:56.436Z,4.47
2023-01-17T00:57:42.161Z,4.41
2023-01-17T01:00:27.995Z,4.30
2023-01-17T01:03:12.765Z,4.39
2023-01-17T01:05:58.174Z,4.29
2023-01-17T01:08:46.300Z,4.40
2023-01-17T01:11:35.319Z,4.28
2023-01-17T01:14:20.547Z,4.27
2023-01-17T01:17:05.859Z,4.21
2023-01-17T01:19:51.229Z,4.28
2023-01-17T01:22:38.934Z,4.14
2023-01-17T01:25:23.983Z,4.16
2023-01-17T01:28:09.215Z,4.16
2023-01-17T01:30:56.733Z,3.99
2023-01-17T01:33:23.226Z,3.78
2023-01-17T01:35:54.505Z,3.69
2023-01-17T01:38:23.880Z,3.65
2023-01-17T01:40:55.950Z,3.62
2023-01-17T01:43:58.916Z,3.32
2023-01-17T01:46:34.354Z,3.36
2023-01-17T01:49:05.053Z,3.31
2023-01-17T01:51:51.160Z,3.36
2023-01-17T01:54:22.852Z,3.14
2023-01-17T01:56:52.479Z,3.03
2023-01-17T01:59:21.163Z,2.88
2023-01-17T02:01:50.402Z,2.71
2023-01-17T02:04:18.768Z,2.77
2023-01-17T02:06:55.996Z,2.61
2023-01-17T02:09:25.111Z,2.68
2023-01-17T02:11:51.656Z,2.67
2023-01-17T02:14:20.320Z,2.41
2023-01-17T02:16:57.527Z,2.51
2023-01-17T02:19:36.207Z,2.35
2023-01-17T02:22:14.406Z,2.40
2023-01-17T02:25:20.505Z,2.61
2023-01-17T02:27:53.086Z,2.95
2023-01-17T02:30:30.570Z,3.14
2023-01-17T02:33:29.314Z,3.21
2023-01-17T02:36:20.131Z,3.13
2023-01-17T02:38:46.666Z,3.08
2023-01-17T02:41:26.637Z,3.13
2023-01-17T02:43:53.986Z,3.18
2023-01-17T02:46:20.693Z,3.17
2023-01-17T02:48:48.586Z,2.96
2023-01-17T02:51:57.287Z,3.12
2023-01-17T02:55:15.220Z,3.23
2023-01-17T02:58:03.118Z,3.40
2023-01-17T03:01:05.193Z,3.60
2023-01-17T03:03:38.750Z,3.75
2023-01-17T03:06:22.571Z,3.69
2023-01-17T03:08:50.504Z,3.68
2023-01-17T03:11:20.050Z,3.66
2023-01-17T03:13:46.635Z,3.83
2023-01-17T03:16:21.991Z,3.85
2023-01-17T03:18:51.405Z,3.79
2023-01-17T03:21:17.976Z,3.82
2023-01-17T03:23:44.618Z,3.72
2023-01-17T03:26:11.408Z,3.58
2023-01-17T03:28:37.997Z,3.61
2023-01-17T03:31:04.936Z,3.58
2023-01-17T03:33:32.702Z,3.64
2023-01-17T03:36:01.553Z,3.57
2023-01-17T03:38:29.339Z,3.64
2023-01-17T03:40:56.032Z,3.57
2023-01-17T03:43:22.636Z,3.72
2023-01-17T03:45:54.556Z,3.56
2023-01-17T03:48:21.693Z,3.70
2023-01-17T03:50:51.516Z,3.65
2023-01-17T03:53:18.066Z,3.64
2023-01-17T03:55:48.369Z,3.57
2023-01-17T03:58:16.353Z,3.76
2023-01-17T04:00:43.292Z,3.81
2023-01-17T04:03:09.846Z,3.73
2023-01-17T04:05:36.479Z,3.74
2023-01-17T04:08:03.503Z,3.64
2023-01-17T04:10:30.078Z,3.64
2023-01-17T04:12:56.718Z,3.68
2023-01-17T04:15:23.295Z,3.57
2023-01-17T04:17:52.315Z,3.69
2023-01-17T04:20:31.048Z,3.75
2023-01-17T04:23:00.112Z,3.76
2023-01-17T04:25:27.565Z,3.86
2023-01-17T04:27:54.209Z,3.76
2023-01-17T04:30:21.008Z,3.63
2023-01-17T04:32:47.668Z,3.58
2023-01-17T04:35:14.337Z,3.45
2023-01-17T04:37:43.211Z,3.39
2023-01-17T04:40:10.970Z,3.30
2023-01-17T04:42:37.994Z,3.35
2023-01-17T04:45:05.057Z,3.32
2023-01-17T04:47:33.164Z,3.26
2023-01-17T04:49:59.968Z,3.05
2023-01-17T04:52:26.584Z,2.93
2023-01-17T04:54:53.661Z,2.76
2023-01-17T04:57:20.329Z,2.78
2023-01-17T04:59:47.173Z,2.66
2023-01-17T05:02:14.532Z,2.69
2023-01-17T05:04:41.117Z,2.49
2023-01-17T05:07:08.164Z,2.56
2023-01-17T05:09:34.906Z,2.36
2023-01-17T05:12:01.644Z,2.20
2023-01-17T05:14:28.315Z,2.20
2023-01-17T05:16:58.574Z,2.14
2023-01-17T05:19:26.772Z,2.17
2023-01-17T05:21:53.567Z,2.33
2023-01-17T05:24:20.970Z,2.48
2023-01-17T05:26:54.819Z,2.66
2023-01-17T05:29:22.073Z,2.85
2023-01-17T05:31:48.621Z,2.87
2023-01-17T05:34:15.218Z,2.95
2023-01-17T05:36:41.790Z,3.01
2023-01-17T05:39:08.431Z,2.96
2023-01-17T05:41:37.206Z,3.04
2023-01-17T05:44:03.883Z,3.05
2023-01-17T05:46:33.455Z,3.15
2023-01-17T05:49:00.040Z,3.02
2023-01-17T05:51:26.724Z,2.98
2023-01-17T05:53:53.282Z,2.79
2023-01-17T05:56:19.808Z,2.77
2023-01-17T05:58:49.339Z,2.77
2023-01-17T06:01:19.570Z,2.88
2023-01-17T06:03:48.564Z,2.81
2023-01-17T06:06:15.190Z,2.83
2023-01-17T06:08:41.839Z,2.82
2023-01-17T06:11:08.486Z,2.92
2023-01-17T06:13:35.065Z,2.98
2023-01-17T06:16:03.978Z,3.08
2023-01-17T06:18:31.680Z,2.99
2023-01-17T06:20:58.474Z,3.19
2023-01-17T06:23:25.544Z,3.21
2023-01-17T06:25:54.374Z,3.31
2023-01-17T06:28:23.992Z,3.22
2023-01-17T06:30:55.404Z,3.16
2023-01-17T06:33:22.012Z,3.06
2023-01-17T06:35:53.087Z,2.97
2023-01-17T06:38:20.692Z,2.71
2023-01-17T06:40:47.517Z,2.52
2023-01-17T06:43:14.706Z,2.58
2023-01-17T06:45:41.295Z,2.35
2023-01-17T06:48:07.932Z,2.39
2023-01-17T06:50:34.664Z,2.22
2023-01-17T06:53:05.355Z,2.09
2023-01-17T06:55:33.812Z,1.96
2023-01-17T06:58:00.825Z,1.98
2023-01-17T07:00:27.771Z,2.11
2023-01-17T07:02:55.164Z,1.87
2023-01-17T07:05:21.810Z,1.75
2023-01-17T07:07:50.633Z,1.84
2023-01-17T07:10:19.264Z,1.78
2023-01-17T07:12:45.934Z,1.60
2023-01-17T07:15:15.215Z,1.46
2023-01-17T07:17:41.887Z,1.52
2023-01-17T07:20:09.286Z,1.48
2023-01-17T07:22:37.687Z,1.38
2023-01-17T07:25:04.817Z,1.46
2023-01-17T07:27:31.418Z,1.50
2023-01-17T07:29:58.100Z,1.43
2023-01-17T07:32:26.609Z,1.28
2023-01-17T07:34:54.375Z,1.22
2023-01-17T07:37:23.296Z,1.03
2023-01-17T07:39:49.901Z,1.07
2023-01-17T07:42:16.539Z,1.29
2023-01-17T07:44:45.021Z,1.16
2023-01-17T07:47:12.163Z,1.33
2023-01-17T07:49:38.764Z,1.35
2023-01-17T07:52:08.944Z,1.49
2023-01-17T07:54:38.403Z,1.61
2023-01-17T07:57:05.112Z,1.60
2023-01-17T07:59:33.767Z,1.72
2023-01-17T08:02:02.536Z,1.72
2023-01-17T08:04:34.847Z,1.70
2023-01-17T08:07:02.052Z,1.65
2023-01-17T08:09:28.664Z,1.50
2023-01-17T08:11:57.776Z,1.51
2023-01-17T08:14:24.941Z,1.73
2023-01-17T08:16:51.506Z,1.78
2023-01-17T08:19:18.087Z,1.80
2023-01-17T08:21:44.758Z,1.81
2023-01-17T08:24:14.773Z,1.84
2023-01-17T08:26:41.349Z,1.98
2023-01-17T08:29:08.152Z,2.01
2023-01-17T08:31:35.358Z,2.22
2023-01-17T08:34:02.039Z,2.30
2023-01-17T08:36:28.908Z,2.42
2023-01-17T08:38:58.868Z,2.55
2023-01-17T08:41:28.678Z,2.56
2023-01-17T08:43:55.198Z,2.62
2023-01-17T08:46:22.489Z,2.84
2023-01-17T08:48:53.302Z,2.97
2023-01-17T08:51:19.856Z,3.20
2023-01-17T08:53:46.425Z,3.39
2023-01-17T08:56:12.970Z,3.57
2023-01-17T08:58:41.443Z,3.73
2023-01-17T09:01:08.182Z,3.89
2023-01-17T09:03:35.189Z,4.02
2023-01-17T09:06:10.235Z,4.28
2023-01-17T09:08:37.480Z,4.48
2023-01-17T09:11:08.620Z,4.59
2023-01-17T09:13:37.862Z,4.69
2023-01-17T09:16:05.277Z,4.78
2023-01-17T09:18:33.117Z,4.87
2023-01-17T09:21:12.145Z,5.03
2023-01-17T09:23:38.820Z,5.35
2023-01-17T09:26:05.646Z,5.56
2023-01-17T09:28:39.636Z,5.87
2023-01-17T09:31:08.211Z,6.06
2023-01-17T09:33:35.162Z,6.30
2023-01-17T09:36:04.361Z,6.47
2023-01-17T09:38:32.290Z,6.64
2023-01-17T09:40:59.010Z,6.58
2023-01-17T09:43:49.013Z,6.85
2023-01-17T09:46:30.054Z,7.04
2023-01-17T09:49:08.936Z,7.29
2023-01-17T09:51:36.803Z,7.54
2023-01-17T09:54:03.677Z,7.73
2023-01-17T09:56:40.167Z,7.74
2023-01-17T09:59:18.798Z,7.44
2023-01-17T10:02:02.286Z,7.85
2023-01-17T10:04:59.278Z,8.14
2023-01-17T10:07:51.376Z,8.09
2023-01-17T10:10:21.046Z,8.03
2023-01-17T10:12:56.321Z,8.04
2023-01-17T10:16:00.973Z,8.14
2023-01-17T10:18:46.086Z,8.05
2023-01-17T10:21:44.160Z,7.93
2023-01-17T10:24:19.748Z,8.01
2023-01-17T10:26:50.441Z,8.03
2023-01-17T10:29:20.989Z,7.89
2023-01-17T10:31:55.729Z,7.72
2023-01-17T10:34:28.980Z,7.60
2023-01-17T10:37:06.462Z,7.47
2023-01-17T10:39:34.516Z,7.64
2023-01-17T10:42:14.321Z,7.61
2023-01-17T10:44:54.668Z,7.57
2023-01-17T10:47:24.096Z,7.78
2023-01-17T10:50:03.542Z,7.64
2023-01-17T10:52:55.610Z,7.48
2023-01-17T10:55:48.283Z,7.26
2023-01-17T10:58:14.903Z,7.41
2023-01-17T11:00:46.549Z,7.41
2023-01-17T11:03:15.783Z,7.31
2023-01-17T11:05:43.111Z,7.12
2023-01-17T11:08:14.381Z,7.15
2023-01-17T11:10:49.042Z,7.24
2023-01-17T11:13:34.336Z,7.28
2023-01-17T11:16:06.019Z,7.22
2023-01-17T11:18:38.468Z,7.28
2023-01-17T11:21:23.329Z,7.28
2023-01-17T11:23:58.892Z,7.29
2023-01-17T11:26:34.742Z,7.38
2023-01-17T11:29:23.228Z,7.14
2023-01-17T11:31:49.736Z,7.20
2023-01-17T11:34:18.647Z,7.39
2023-01-17T11:36:45.173Z,7.30
2023-01-17T11:39:17.875Z,7.02
2023-01-17T11:41:49.436Z,7.18
2023-01-17T11:44:28.857Z,7.19
2023-01-17T11:47:24.512Z,7.04
2023-01-17T11:49:51.069Z,7.11
2023-01-17T11:52:34.490Z,6.94
2023-01-17T11:55:01.096Z,7.14
2023-01-17T11:57:35.715Z,7.03
2023-01-17T12:00:14.381Z,7.29
2023-01-17T12:03:07.198Z,7.23
2023-01-17T12:05:58.052Z,7.18
2023-01-17T12:08:46.170Z,7.15
2023-01-17T12:11:32.012Z,7.02
2023-01-17T12:14:22.954Z,7.10
2023-01-17T12:17:07.765Z,6.94
2023-01-17T12:19:54.122Z,7.06
2023-01-17T12:22:38.627Z,7.04
2023-01-17T12:25:55.166Z,7.20
2023-01-17T12:28:59.982Z,7.01
2023-01-17T12:31:41.684Z,6.95
2023-01-17T12:34:32.386Z,7.00
2023-01-17T12:37:07.141Z,6.94
2023-01-17T12:39:40.425Z,6.85
2023-01-17T12:42:22.742Z,6.80
2023-01-17T12:45:04.560Z,6.83
2023-01-17T12:47:36.249Z,6.88
2023-01-17T12:50:10.002Z,6.68
2023-01-17T12:52:42.531Z,6.83
2023-01-17T12:55:17.636Z,6.74
2023-01-17T12:57:57.285Z,6.65
2023-01-17T13:00:29.627Z,6.74
2023-01-17T13:03:20.382Z,6.88
2023-01-17T13:05:48.509Z,6.86
2023-01-17T13:08:40.453Z,6.92
2023-01-17T13:11:27.858Z,6.82
2023-01-17T13:13:57.394Z,6.74
2023-01-17T13:16:42.045Z,6.69
2023-01-17T13:19:27.016Z,6.67
2023-01-17T13:21:55.253Z,6.65
2023-01-17T13:24:31.027Z,6.63
2023-01-17T13:27:08.243Z,6.52
2023-01-17T13:30:01.080Z,6.51
2023-01-17T13:33:17.275Z,6.54
2023-01-17T13:36:18.999Z,6.54
2023-01-17T13:39:00.702Z,6.45
2023-01-17T13:41:45.138Z,6.51
2023-01-17T13:44:24.636Z,6.53
2023-01-17T13:47:01.023Z,6.62
2023-01-17T13:49:34.111Z,6.65
2023-01-17T13:52:09.624Z,6.51
2023-01-17T13:54:54.531Z,6.44
2023-01-17T13:57:28.466Z,6.45
2023-01-17T13:59:57.444Z,6.42
2023-01-17T14:02:33.013Z,6.37
2023-01-17T14:05:05.650Z,6.18
2023-01-17T14:07:35.773Z,6.13
2023-01-17T14:10:21.086Z,6.14
2023-01-17T14:12:47.588Z,6.17
2023-01-17T14:15:21.149Z,6.22
2023-01-17T14:17:55.697Z,6.24
2023-01-17T14:20:49.926Z,6.15
2023-01-17T14:23:28.862Z,6.03
2023-01-17T14:25:59.142Z,6.04
2023-01-17T14:28:31.987Z,5.95
2023-01-17T14:31:00.942Z,5.95
2023-01-17T14:33:35.338Z,6.02
2023-01-17T14:36:05.676Z,6.14
2023-01-17T14:38:33.621Z,5.98
2023-01-17T14:41:07.482Z,5.78
2023-01-17T14:43:39.830Z,5.69
2023-01-17T14:46:17.189Z,5.88
2023-01-17T14:48:46.078Z,5.85
2023-01-17T14:51:18.318Z,5.88
2023-01-17T14:54:02.232Z,5.84
2023-01-17T14:56:30.624Z,5.82
2023-01-17T14:59:16.949Z,5.88
2023-01-17T15:02:06.309Z,5.85
2023-01-17T15:04:39.321Z,5.89
2023-01-17T15:07:15.001Z,5.82
2023-01-17T15:09:42.881Z,5.78
2023-01-17T15:12:14.070Z,5.75
2023-01-17T15:14:44.557Z,5.62
2023-01-17T15:17:20.118Z,5.58
2023-01-17T15:19:52.806Z,5.55
2023-01-17T15:22:20.216Z,5.48
2023-01-17T15:24:47.840Z,5.44
2023-01-17T15:27:16.844Z,5.40
2023-01-17T15:29:45.586Z,5.32
2023-01-17T15:32:31.422Z,5.35
2023-01-17T15:35:02.914Z,5.16
2023-01-17T15:37:35.179Z,5.12
2023-01-17T15:40:18.640Z,5.02
2023-01-17T15:42:49.215Z,5.09
2023-01-17T15:45:19.956Z,5.00
2023-01-17T15:47:46.686Z,5.03
2023-01-17T15:50:26.589Z,4.96
2023-01-17T15:52:57.412Z,4.94
2023-01-17T15:55:33.276Z,4.88
2023-01-17T15:58:00.943Z,4.80
2023-01-17T16:00:37.442Z,4.88
2023-01-17T16:03:21.569Z,4.79
2023-01-17T16:05:49.154Z,4.61
2023-01-17T16:08:16.392Z,4.69
2023-01-17T16:10:44.050Z,4.49
2023-01-17T16:13:12.860Z,4.29
2023-01-17T16:15:42.780Z,4.28
2023-01-17T16:18:15.446Z,4.26
2023-01-17T16:20:47.547Z,4.21
2023-01-17T16:23:14.271Z,4.19
2023-01-17T16:25:40.895Z,4.04
2023-01-17T16:28:07.497Z,4.02
2023-01-17T16:30:34.168Z,3.94
2023-01-17T16:33:00.770Z,3.88
2023-01-17T16:35:31.289Z,3.88
2023-01-17T16:38:01.104Z,3.88
2023-01-17T16:40:29.844Z,3.84
2023-01-17T16:42:57.429Z,3.79
2023-01-17T16:45:24.938Z,3.84
2023-01-17T16:47:52.665Z,3.84
2023-01-17T16:50:22.511Z,3.83
2023-01-17T16:52:54.248Z,3.78
2023-01-17T16:55:25.088Z,3.65
2023-01-17T16:57:54.138Z,3.69
2023-01-17T17:00:24.288Z,3.77
2023-01-17T17:02:51.530Z,3.57
2023-01-17T17:05:21.916Z,3.68
2023-01-17T17:07:53.070Z,3.73
2023-01-17T17:10:25.272Z,3.57
2023-01-17T17:12:52.156Z,3.46
2023-01-17T17:15:18.880Z,3.43
2023-01-17T17:17:45.876Z,3.34
2023-01-17T17:20:14.916Z,3.35
2023-01-17T17:22:46.042Z,3.49
2023-01-17T17:25:15.963Z,3.34
2023-01-17T17:27:42.876Z,3.39
2023-01-17T17:30:14.016Z,3.32
2023-01-17T17:32:40.607Z,3.31
2023-01-17T17:35:07.402Z,3.40
2023-01-17T17:37:34.477Z,3.42
2023-01-17T17:40:01.080Z,3.31
2023-01-17T17:42:27.646Z,3.44
2023-01-17T17:44:54.168Z,3.37
2023-01-17T17:47:20.684Z,3.42
2023-01-17T17:49:52.079Z,3.33
2023-01-17T17:52:18.722Z,3.28
2023-01-17T17:54:45.244Z,3.28
2023-01-17T17:57:11.734Z,3.42
2023-01-17T17:59:38.197Z,3.38
2023-01-17T18:02:11.013Z,3.38
2023-01-17T18:04:37.980Z,3.50
2023-01-17T18:07:04.486Z,3.40
2023-01-17T18:09:31.101Z,3.42
2023-01-17T18:11:57.775Z,3.37
2023-01-17T18:14:24.426Z,3.33
2023-01-17T18:16:51.727Z,3.33
2023-01-17T18:19:24.280Z,3.38
2023-01-17T18:21:54.433Z,3.39
2023-01-17T18:24:23.233Z,3.31
2023-01-17T18:26:56.787Z,3.31
2023-01-17T18:29:25.147Z,3.30
2023-01-17T18:31:55.572Z,3.43
2023-01-17T18:34:29.561Z,3.37
2023-01-17T18:36:57.159Z,3.40
2023-01-17T18:39:29.516Z,3.40
2023-01-17T18:41:56.630Z,3.41
2023-01-17T18:44:27.387Z,3.40
2023-01-17T18:46:54.630Z,3.49
2023-01-17T18:49:21.323Z,3.53
2023-01-17T18:51:51.837Z,3.47
2023-01-17T18:54:22.151Z,3.51
2023-01-17T18:56:48.706Z,3.55
2023-01-17T18:59:18.801Z,3.54
2023-01-17T19:01:45.661Z,3.62
2023-01-17T19:04:14.186Z,3.45
2023-01-17T19:06:42.951Z,3.48
2023-01-17T19:09:11.734Z,3.39
2023-01-17T19:11:38.339Z,3.44
2023-01-17T19:14:08.166Z,3.43
2023-01-17T19:16:39.422Z,3.47
2023-01-17T19:19:12.748Z,3.48
2023-01-17T19:21:39.581Z,3.50
2023-01-17T19:24:06.783Z,3.64
2023-01-17T19:26:34.142Z,3.61
2023-01-17T19:29:00.725Z,3.65
2023-01-17T19:31:28.916Z,3.44
2023-01-17T19:33:57.618Z,3.58
2023-01-17T19:36:27.469Z,3.65
2023-01-17T19:39:03.873Z,3.55
2023-01-17T19:41:31.147Z,3.64
2023-01-17T19:44:02.293Z,3.48
2023-01-17T19:46:29.197Z,3.46
2023-01-17T19:48:57.324Z,3.37
2023-01-17T19:51:25.423Z,3.40
2023-01-17T19:53:53.565Z,3.47
2023-01-17T19:56:22.693Z,3.47
2023-01-17T19:58:49.325Z,3.44
2023-01-17T20:01:18.692Z,3.35
2023-01-17T20:03:46.348Z,3.35
2023-01-17T20:06:15.776Z,3.48
2023-01-17T20:08:42.330Z,3.43
2023-01-17T20:11:14.565Z,3.38
2023-01-17T20:13:42.137Z,3.40
2023-01-17T20:16:11.100Z,3.35
2023-01-17T20:18:38.051Z,3.33
2023-01-17T20:21:14.129Z,3.44
2023-01-17T20:23:43.016Z,3.41
2023-01-17T20:26:11.323Z,3.46
2023-01-17T20:28:39.530Z,3.50
2023-01-17T20:31:08.898Z,3.53
2023-01-17T20:33:36.611Z,3.47
2023-01-17T20:36:10.662Z,3.40
2023-01-17T20:38:45.865Z,3.33
2023-01-17T20:41:16.867Z,3.33
2023-01-17T20:43:45.111Z,3.45
2023-01-17T20:46:14.403Z,3.47
2023-01-17T20:48:46.298Z,3.47
2023-01-17T20:51:13.810Z,3.52
2023-01-17T20:53:45.324Z,3.53
2023-01-17T20:56:13.967Z,3.68
2023-01-17T20:58:42.584Z,3.77
2023-01-17T21:01:11.962Z,3.72
2023-01-17T21:03:39.328Z,3.61
2023-01-17T21:06:11.367Z,3.56
2023-01-17T21:08:43.386Z,3.44
2023-01-17T21:11:12.789Z,3.32
2023-01-17T21:13:39.739Z,3.28
2023-01-17T21:16:10.660Z,3.26
2023-01-17T21:18:37.718Z,3.34
2023-01-17T21:21:11.051Z,3.37
2023-01-17T21:23:39.789Z,3.36
2023-01-17T21:26:08.576Z,3.42
2023-01-17T21:28:38.043Z,3.17
2023-01-17T21:31:23.157Z,3.25
2023-01-17T21:33:51.282Z,3.17
2023-01-17T21:36:21.166Z,3.19
2023-01-17T21:38:52.345Z,3.13
2023-01-17T21:41:27.266Z,3.09
2023-01-17T21:43:55.293Z,3.10
2023-01-17T21:46:24.672Z,3.12
2023-01-17T21:48:51.341Z,3.18
2023-01-17T21:51:19.672Z,3.31
2023-01-17T21:53:46.436Z,3.24
2023-01-17T21:56:32.544Z,3.14
2023-01-17T21:58:59.870Z,3.08
2023-01-17T22:01:28.944Z,3.08
2023-01-17T22:04:01.141Z,3.14
2023-01-17T22:06:30.468Z,3.02
2023-01-17T22:08:57.656Z,2.94
2023-01-17T22:11:26.652Z,3.00
2023-01-17T22:13:53.634Z,3.01
2023-01-17T22:16:23.437Z,2.97
2023-01-17T22:18:50.845Z,2.99
2023-01-17T22:21:20.157Z,2.94
2023-01-17T22:23:54.472Z,2.99
2023-01-17T22:26:23.436Z,3.03
2023-01-17T22:28:49.890Z,3.01
2023-01-17T22:31:17.603Z,2.97
2023-01-17T22:33:45.711Z,2.97
2023-01-17T22:36:13.859Z,2.98
2023-01-17T22:38:41.564Z,2.88
2023-01-17T22:41:10.651Z,3.02
2023-01-17T22:43:39.684Z,2.85
2023-01-17T22:46:08.468Z,2.76
2023-01-17T22:48:38.725Z,2.78
2023-01-17T22:51:07.797Z,2.65
2023-01-17T22:53:37.500Z,2.78
2023-01-17T22:56:06.854Z,2.82
2023-01-17T22:58:34.823Z,2.76
2023-01-17T23:01:13.249Z,2.82
2023-01-17T23:03:44.636Z,2.81
2023-01-17T23:06:12.565Z,2.84
2023-01-17T23:08:41.131Z,2.90
2023-01-17T23:11:43.696Z,2.99
2023-01-17T23:14:17.984Z,2.85
2023-01-17T23:17:20.803Z,2.92
2023-01-17T23:19:52.946Z,2.92
2023-01-17T23:22:26.891Z,2.95
2023-01-17T23:24:57.798Z,2.96
2023-01-17T23:27:43.772Z,3.02
2023-01-17T23:30:20.931Z,2.99
2023-01-17T23:33:14.371Z,3.01
2023-01-17T23:35:43.380Z,2.95
2023-01-17T23:38:30.884Z,2.97
2023-01-17T23:41:24.722Z,2.96
2023-01-17T23:43:58.644Z,2.96
2023-01-17T23:46:27.002Z,2.90
2023-01-17T23:48:54.836Z,2.98
2023-01-17T23:51:23.653Z,3.03
2023-01-17T23:53:53.386Z,3.11
2023-01-17T23:56:23.046Z,3.19
2023-01-17T23:58:51.883Z,3.16
